WetterOnline ( https://www.wetteronline.de )

Wetter aktuell Borken

Aktuelles Wetter: Ahaus (46m)

6-stündlich | Neueste Meldungen
Ortszeit Temperatur Wetter
Fr, 27.05. 8:00 13.8° C leicht bewölkt
Fr, 27.05. 2:00 14.2° C Sprühregen
Do, 26.05. 20:00 18.0° C bedeckt
Do, 26.05. 14:00 18.6° C bewölkt
Do, 26.05. 8:00 14.7° C wolkig
Do, 26.05. 2:00 14.5° C bedeckt
Mi, 25.05. 20:00 16.6° C bedeckt
Mi, 25.05. 14:00 17.5° C bewölkt
Ortszeit Temperatur Wetter
Fr, 27.05. 8:00 13.8° C leicht bewölkt
Fr, 27.05. 7:40 13.6° C wolkig
Fr, 27.05. 7:30 13.3° C bewölkt
Fr, 27.05. 7:20 13.3° C bewölkt
Fr, 27.05. 7:10 13.3° C bewölkt
Fr, 27.05. 7:00 13.0° C bewölkt
Fr, 27.05. 6:50 13.0° C bewölkt
Fr, 27.05. 6:30 12.9° C bewölkt
Fr, 27.05. 6:00 12.9° C bewölkt
Fr, 27.05. 5:30 13.2° C bedeckt
Fr, 27.05. 5:00 13.2° C bedeckt
Ortszeit Relative Feuchte Sichtweite
Fr, 27.05. 8:00 85% 30 km
Fr, 27.05. 2:00 86% 26 km
Do, 26.05. 20:00 64% 50 km
Do, 26.05. 14:00 55% 45 km
Do, 26.05. 8:00 82% 21 km
Do, 26.05. 2:00 72% 60 km
Mi, 25.05. 20:00 54% 50 km
Mi, 25.05. 14:00 57% 50 km
Ortszeit Relative Feuchte Sichtweite
Fr, 27.05. 8:00 85% 30 km
Fr, 27.05. 7:40 87% -
Fr, 27.05. 7:30 87% 35 km
Fr, 27.05. 7:20 87% -
Fr, 27.05. 7:10 88% -
Fr, 27.05. 7:00 91% 35 km
Fr, 27.05. 6:50 91% -
Fr, 27.05. 6:30 92% 30 km
Fr, 27.05. 6:00 92% 35 km
Fr, 27.05. 5:30 93% 29 km
Fr, 27.05. 5:00 93% 30 km
Ortszeit Niederschlagsmenge Niederschlagsart
Fr, 27.05. 8:00 2 l/m2 in 12 Std. Regen
Fr, 27.05. 2:00 0.2 l/m2 in 6 Std. Regen
Do, 26.05. 20:00 0.0 l/m2 in 12 Std. -
Do, 26.05. 14:00 0.0 l/m2 in 6 Std. -
Do, 26.05. 8:00 0.1 l/m2 in 12 Std. Regen
Do, 26.05. 2:00 0.1 l/m2 in 6 Std. Sprühregen
Mi, 25.05. 20:00 0.1 l/m2 in 12 Std. Regen
Mi, 25.05. 14:00 0.1 l/m2 in 6 Std. Regen
Ortszeit Niederschlagsmenge Niederschlagsart
Fr, 27.05. 8:00 0.0 l/m2 in 1 Std. Regen
Fr, 27.05. 7:40 keine Meldung -
Fr, 27.05. 7:30 0.0 l/m2 in 1 Std. -
Fr, 27.05. 7:20 keine Meldung -
Fr, 27.05. 7:10 keine Meldung -
Fr, 27.05. 7:00 0.0 l/m2 in 1 Std. -
Fr, 27.05. 6:50 keine Meldung -
Fr, 27.05. 6:30 0.0 l/m2 in 1 Std. -
Fr, 27.05. 6:00 0.0 l/m2 in 1 Std. -
Fr, 27.05. 5:30 0.0 l/m2 in 1 Std. -
Fr, 27.05. 5:00 0.2 l/m2 in 1 Std. Regen
Ortszeit Stärke Spitze Richtung
km/h Bft. km/h Grad Sektor
Fr, 27.05. 8:00 11 2 35 260° W
Fr, 27.05. 2:00 17 3 41 230° SW
Do, 26.05. 20:00 14 3 40 270° W
Do, 26.05. 14:00 18 3 40 230° SW
Do, 26.05. 8:00 13 3 33 240° SW
Do, 26.05. 2:00 14 3 43 230° SW
Mi, 25.05. 20:00 20 4 41 220° SW
Mi, 25.05. 14:00 14 3 40 250° W
Ortszeit Stärke Spitze Richtung
km/h Bft. km/h Grad Sektor
Fr, 27.05. 8:00 11 2 22 260° W
Fr, 27.05. 7:40 11 2 - 260° W
Fr, 27.05. 7:30 11 2 22 260° W
Fr, 27.05. 7:20 11 2 - 260° W
Fr, 27.05. 7:10 11 2 - 270° W
Fr, 27.05. 7:00 7 2 22 250° W
Fr, 27.05. 6:50 7 2 - 250° W
Fr, 27.05. 6:30 9 2 20 250° W
Fr, 27.05. 6:00 9 2 20 250° W
Fr, 27.05. 5:30 11 2 22 250° W
Fr, 27.05. 5:00 9 2 28 260° W
Ortszeit Untergrenze Bedeckung Gattung
total tief tief mittel hoch
Fr, 27.05. 8:00 330 m 4/8 3/8 - - -
Fr, 27.05. 2:00 570 m 8/8 8/8 - - -
Do, 26.05. 20:00 1050 m 8/8 8/8 - - -
Do, 26.05. 14:00 1110 m 7/8 7/8 - - -
Do, 26.05. 8:00 390 m 6/8 6/8 - - -
Do, 26.05. 2:00 630 m 8/8 8/8 - - -
Mi, 25.05. 20:00 1470 m 8/8 8/8 - - -
Mi, 25.05. 14:00 1800 m 8/8 7/8 - - -
Ortszeit Bedeckungsgrad in Achtel und Wolkenuntergrenze
Fr, 27.05. 8:00 3(330m) 4(10500m)
Fr, 27.05. 7:40 5
Fr, 27.05. 7:30 7(420m) 7(600m) 7(1500m)
Fr, 27.05. 7:20 7(420m) 7(600m) 7(1500m)
Fr, 27.05. 7:10 7
Fr, 27.05. 7:00 3(360m) 7(570m) 7(750m)
Fr, 27.05. 6:50 3(360m) 7(570m) 7(750m)
Fr, 27.05. 6:30 4(360m) 7(510m) 7(660m)
Fr, 27.05. 6:00 3(330m) 7(660m) 8(9000m)
Fr, 27.05. 5:30 4(330m) 8(1500m) 8(3000m)
Fr, 27.05. 5:00 4(360m) 7(480m) 8(1500m)
Ortszeit Luftdruck NN (hPa) Tendenz (hPa in 3 Std.)
Fr, 27.05. 8:00 1019 + 0,4
Fr, 27.05. 2:00 1019 - 0,8
Do, 26.05. 20:00 1019 - 0,4
Do, 26.05. 14:00 1021 + 0,4
Do, 26.05. 8:00 1019 + 1,5
Do, 26.05. 2:00 1017 + 0,4
Mi, 25.05. 20:00 1015 + 0,5
Mi, 25.05. 14:00 1014 0,0
Ortszeit Luftdruck NN (hPa) Tendenz (hPa in 3 Std.)
Fr, 27.05. 8:00 1019 + 0,4
Fr, 27.05. 7:40 1019 keine Meldung
Fr, 27.05. 7:30 1019 + 0,3
Fr, 27.05. 7:20 1019 keine Meldung
Fr, 27.05. 7:10 1019 keine Meldung
Fr, 27.05. 7:00 1019 + 0,4
Fr, 27.05. 6:50 1019 keine Meldung
Fr, 27.05. 6:30 1019 + 0,1
Fr, 27.05. 6:00 1019 + 0,4
Fr, 27.05. 5:30 1018 + 0,2
Fr, 27.05. 5:00 1018 - 0,1
Ortszeit Schneehöhe (cm)
Fr, 27.05. 8:00 0
Fr, 27.05. 2:00 0
Do, 26.05. 20:00 0
Do, 26.05. 14:00 0
Do, 26.05. 8:00 0
Do, 26.05. 2:00 0
Mi, 25.05. 20:00 0
Mi, 25.05. 14:00 0
Ortszeit Schneehöhe (cm)
Fr, 27.05. 8:00 0
Fr, 27.05. 7:40 0
Fr, 27.05. 7:30 0
Fr, 27.05. 7:20 0
Fr, 27.05. 7:10 0
Fr, 27.05. 7:00 0
Fr, 27.05. 6:50 0
Fr, 27.05. 6:30 0
Fr, 27.05. 6:00 0
Fr, 27.05. 5:30 0
Fr, 27.05. 5:00 0
Link zu dieser Seite / Seite empfehlen

Das Wetter in ...